sensor_id;sensor_type;location;lat;lon;timestamp;P1;P2;P0
74432;PMS7003;62865;53.146;23.172;2023-04-03T00:01:07;0;0;0
74432;PMS7003;62865;53.146;23.172;2023-04-03T00:06:29;0.2;0.2;0
74432;PMS7003;62865;53.146;23.172;2023-04-03T00:11:13;0.4;0.2;0
74432;PMS7003;62865;53.146;23.172;2023-04-03T00:16:43;0;0;0
74432;PMS7003;62865;53.146;23.172;2023-04-03T00:21:27;0.3;0;0
74432;PMS7003;62865;53.146;23.172;2023-04-03T00:25:57;0;0;0
74432;PMS7003;62865;53.146;23.172;2023-04-03T00:31:27;0;0;0
74432;PMS7003;62865;53.146;23.172;2023-04-03T00:35:57;0.2;0;0
74432;PMS7003;62865;53.146;23.172;2023-04-03T00:41:43;0.2;0;0
74432;PMS7003;62865;53.146;23.172;2023-04-03T00:46:27;0.4;0;0
74432;PMS7003;62865;53.146;23.172;2023-04-03T00:51:08;0.6;0;0
74432;PMS7003;62865;53.146;23.172;2023-04-03T00:56:21;1.8;0.4;0
74432;PMS7003;62865;53.146;23.172;2023-04-03T01:01:05;0.8;0;0
74432;PMS7003;62865;53.146;23.172;2023-04-03T01:06:43;0;0;0
74432;PMS7003;62865;53.146;23.172;2023-04-03T01:11:11;0;0;0
74432;PMS7003;62865;53.146;23.172;2023-04-03T01:15:59;0.6;0.2;0.2
74432;PMS7003;62865;53.146;23.172;2023-04-03T01:22:33;0.4;0;0
74432;PMS7003;62865;53.146;23.172;2023-04-03T01:26:13;0.4;0.2;0
74432;PMS7003;62865;53.146;23.172;2023-04-03T01:31:47;0;0;0
74432;PMS7003;62865;53.146;23.172;2023-04-03T01:36:29;0.2;0;0
74432;PMS7003;62865;53.146;23.172;2023-04-03T01:41:37;0;0;0
74432;PMS7003;62865;53.146;23.172;2023-04-03T01:46:29;0;0;0
74432;PMS7003;62865;53.146;23.172;2023-04-03T01:51:13;0;0;0
74432;PMS7003;62865;53.146;23.172;2023-04-03T01:56:45;0;0;0
74432;PMS7003;62865;53.146;23.172;2023-04-03T02:01:27;0;0;0
74432;PMS7003;62865;53.146;23.172;2023-04-03T02:05:59;0;0;0
74432;PMS7003;62865;53.146;23.172;2023-04-03T02:11:27;0.4;0;0
74432;PMS7003;62865;53.146;23.172;2023-04-03T02:16:29;0.4;0;0
74432;PMS7003;62865;53.146;23.172;2023-04-03T02:21:43;0;0;0
74432;PMS7003;62865;53.146;23.172;2023-04-03T02:26:27;0.2;0.2;0
74432;PMS7003;62865;53.146;23.172;2023-04-03T02:31:25;0;0;0
74432;PMS7003;62865;53.146;23.172;2023-04-03T02:36:27;0.2;0;0
74432;PMS7003;62865;53.146;23.172;2023-04-03T02:41:04;0.2;0;0
74432;PMS7003;62865;53.146;23.172;2023-04-03T02:46:41;0.2;0;0
74432;PMS7003;62865;53.146;23.172;2023-04-03T02:51:27;0.2;0;0
74432;PMS7003;62865;53.146;23.172;2023-04-03T02:56:47;0.4;0;0
74432;PMS7003;62865;53.146;23.172;2023-04-03T03:01:22;0;0;0
74432;PMS7003;62865;53.146;23.172;2023-04-03T03:06:04;0.2;0;0
74432;PMS7003;62865;53.146;23.172;2023-04-03T03:11:45;0.8;0;0
74432;PMS7003;62865;53.146;23.172;2023-04-03T03:16:27;0.2;0;0
74432;PMS7003;62865;53.146;23.172;2023-04-03T03:20:58;0.8;0;0
74432;PMS7003;62865;53.146;23.172;2023-04-03T03:26:24;0.2;0;0
74432;PMS7003;62865;53.146;23.172;2023-04-03T03:31:13;0;0;0
74432;PMS7003;62865;53.146;23.172;2023-04-03T03:36:35;0;0;0
74432;PMS7003;62865;53.146;23.172;2023-04-03T03:41:13;0.2;0;0
74432;PMS7003;62865;53.146;23.172;2023-04-03T03:45:57;0.2;0;0
74432;PMS7003;62865;53.146;23.172;2023-04-03T03:51:43;0;0;0
74432;PMS7003;62865;53.146;23.172;2023-04-03T03:55:57;0.2;0;0
74432;PMS7003;62865;53.146;23.172;2023-04-03T04:01:35;0;0;0
74432;PMS7003;62865;53.146;23.172;2023-04-03T04:06:07;0;0;0
74432;PMS7003;62865;53.146;23.172;2023-04-03T04:11:09;0;0;0
74432;PMS7003;62865;53.146;23.172;2023-04-03T04:16:41;0.3;0.3;0
74432;PMS7003;62865;53.146;23.172;2023-04-03T04:20:57;0.2;0.2;0
74432;PMS7003;62865;53.146;23.172;2023-04-03T04:25:57;0.8;0;0
74432;PMS7003;62865;53.146;23.172;2023-04-03T04:30:57;0;0;0
74432;PMS7003;62865;53.146;23.172;2023-04-03T04:36:07;0.6;0.2;0
74432;PMS7003;62865;53.146;23.172;2023-04-03T04:41:45;0.4;0;0
74432;PMS7003;62865;53.146;23.172;2023-04-03T04:46:08;0.4;0.4;0
74432;PMS7003;62865;53.146;23.172;2023-04-03T04:51:08;0.6;0.2;0
74432;PMS7003;62865;53.146;23.172;2023-04-03T04:56:08;0.6;0.2;0
74432;PMS7003;62865;53.146;23.172;2023-04-03T05:01:11;0.6;0.4;0
74432;PMS7003;62865;53.146;23.172;2023-04-03T05:06:46;0.8;0.2;0
74432;PMS7003;62865;53.146;23.172;2023-04-03T05:11:13;0.2;0.2;0
74432;PMS7003;62865;53.146;23.172;2023-04-03T05:16:12;0.4;0.4;0.2
74432;PMS7003;62865;53.146;23.172;2023-04-03T05:20:57;1;0.5;0.3
74432;PMS7003;62865;53.146;23.172;2023-04-03T05:25:57;0.8;0.4;0
74432;PMS7003;62865;53.146;23.172;2023-04-03T05:31:45;0.2;0.2;0.2
74432;PMS7003;62865;53.146;23.172;2023-04-03T05:36:04;1.2;1.2;0.4
74432;PMS7003;62865;53.146;23.172;2023-04-03T05:41:27;1;0.6;0.2
74432;PMS7003;62865;53.146;23.172;2023-04-03T05:45:57;1.8;0.6;0
74432;PMS7003;62865;53.146;23.172;2023-04-03T05:51:24;0.8;0.6;0.2
74432;PMS7003;62865;53.146;23.172;2023-04-03T05:56:45;0.4;0.2;0.2
74432;PMS7003;62865;53.146;23.172;2023-04-03T06:01:13;0.3;0.3;0
74432;PMS7003;62865;53.146;23.172;2023-04-03T06:06:52;0.4;0.4;0
74432;PMS7003;62865;53.146;23.172;2023-04-03T06:11:03;1;0.2;0
74432;PMS7003;62865;53.146;23.172;2023-04-03T06:16:34;0.4;0.4;0.2
74432;PMS7003;62865;53.146;23.172;2023-04-03T06:21:43;0.8;0.4;0.2
74432;PMS7003;62865;53.146;23.172;2023-04-03T06:26:27;0.4;0.2;0
74432;PMS7003;62865;53.146;23.172;2023-04-03T06:31:35;0.4;0.2;0
74432;PMS7003;62865;53.146;23.172;2023-04-03T06:36:42;0.2;0.2;0
74432;PMS7003;62865;53.146;23.172;2023-04-03T06:41:19;0.3;0.3;0
74432;PMS7003;62865;53.146;23.172;2023-04-03T06:46:42;0.2;0.2;0
74432;PMS7003;62865;53.146;23.172;2023-04-03T06:50:57;0.8;0.8;0.3
74432;PMS7003;62865;53.146;23.172;2023-04-03T06:56:34;0.4;0;0
74432;PMS7003;62865;53.146;23.172;2023-04-03T07:00:57;0.8;0.5;0.3
74432;PMS7003;62865;53.146;23.172;2023-04-03T07:06:24;1.8;1;0.2
74432;PMS7003;62865;53.146;23.172;2023-04-03T07:11:45;2.4;0.2;0
74432;PMS7003;62865;53.146;23.172;2023-04-03T07:16:13;0;0;0
74432;PMS7003;62865;53.146;23.172;2023-04-03T07:21:35;0.2;0;0
74432;PMS7003;62865;53.146;23.172;2023-04-03T07:25:58;0.3;0;0
74432;PMS7003;62865;53.146;23.172;2023-04-03T07:31:09;0.8;0;0
74432;PMS7003;62865;53.146;23.172;2023-04-03T07:36:42;0.8;0.3;0
74432;PMS7003;62865;53.146;23.172;2023-04-03T07:41:14;3.8;3;1.6
74432;PMS7003;62865;53.146;23.172;2023-04-03T07:46:22;0.8;0.6;0.4
74432;PMS7003;62865;53.146;23.172;2023-04-03T07:50:58;0;0;0
74432;PMS7003;62865;53.146;23.172;2023-04-03T07:56:14;0;0;0
74432;PMS7003;62865;53.146;23.172;2023-04-03T08:01:42;0.8;0.2;0
74432;PMS7003;62865;53.146;23.172;2023-04-03T08:06:01;0;0;0
74432;PMS7003;62865;53.146;23.172;2023-04-03T08:11:44;0.4;0.4;0
74432;PMS7003;62865;53.146;23.172;2023-04-03T08:16:28;0.3;0.3;0
74432;PMS7003;62865;53.146;23.172;2023-04-03T08:21:22;0.4;0;0
74432;PMS7003;62865;53.146;23.172;2023-04-03T08:26:12;0.2;0;0
74432;PMS7003;62865;53.146;23.172;2023-04-03T08:31:01;0.2;0;0
74432;PMS7003;62865;53.146;23.172;2023-04-03T08:36:38;1.3;0.5;0.3
74432;PMS7003;62865;53.146;23.172;2023-04-03T08:41:31;0;0;0
74432;PMS7003;62865;53.146;23.172;2023-04-03T08:46:09;1.2;0.4;0
74432;PMS7003;62865;53.146;23.172;2023-04-03T08:51:20;0.4;0.2;0
74432;PMS7003;62865;53.146;23.172;2023-04-03T08:56:07;0.4;0;0
74432;PMS7003;62865;53.146;23.172;2023-04-03T09:01:44;0;0;0
74432;PMS7003;62865;53.146;23.172;2023-04-03T09:06:29;0.2;0.2;0
74432;PMS7003;62865;53.146;23.172;2023-04-03T09:11:09;0.2;0.2;0
74432;PMS7003;62865;53.146;23.172;2023-04-03T09:16:25;2;0.4;0.2
74432;PMS7003;62865;53.146;23.172;2023-04-03T09:20:59;1;0.8;0.2
74432;PMS7003;62865;53.146;23.172;2023-04-03T09:26:44;0;0;0
74432;PMS7003;62865;53.146;23.172;2023-04-03T09:31:16;0.5;0;0
74432;PMS7003;62865;53.146;23.172;2023-04-03T09:36:44;0.4;0;0
74432;PMS7003;62865;53.146;23.172;2023-04-03T09:41:13;0;0;0
74432;PMS7003;62865;53.146;23.172;2023-04-03T09:46:25;0.8;0.8;0.4
74432;PMS7003;62865;53.146;23.172;2023-04-03T09:51:30;0;0;0
74432;PMS7003;62865;53.146;23.172;2023-04-03T09:56:48;0.2;0;0
74432;PMS7003;62865;53.146;23.172;2023-04-03T10:01:09;0.8;0.2;0
74432;PMS7003;62865;53.146;23.172;2023-04-03T10:06:20;1;0.5;0.3
74432;PMS7003;62865;53.146;23.172;2023-04-03T10:11:10;0.6;0.4;0.2
74432;PMS7003;62865;53.146;23.172;2023-04-03T10:16:45;1;0.2;0
74432;PMS7003;62865;53.146;23.172;2023-04-03T10:21:29;1.3;0.3;0
74432;PMS7003;62865;53.146;23.172;2023-04-03T10:26:09;1;0.4;0
74432;PMS7003;62865;53.146;23.172;2023-04-03T10:30:58;0.8;0.2;0
74432;PMS7003;62865;53.146;23.172;2023-04-03T10:36:25;0.3;0;0
74432;PMS7003;62865;53.146;23.172;2023-04-03T10:41:45;0.4;0;0
74432;PMS7003;62865;53.146;23.172;2023-04-03T10:46:28;0.3;0.3;0
74432;PMS7003;62865;53.146;23.172;2023-04-03T10:51:14;0.6;0.2;0
74432;PMS7003;62865;53.146;23.172;2023-04-03T10:56:13;0;0;0
74432;PMS7003;62865;53.146;23.172;2023-04-03T11:00:59;0.4;0;0
74432;PMS7003;62865;53.146;23.172;2023-04-03T11:06:45;0;0;0
74432;PMS7003;62865;53.146;23.172;2023-04-03T11:11:24;0.2;0;0
74432;PMS7003;62865;53.146;23.172;2023-04-03T11:15:58;1;0.6;0
74432;PMS7003;62865;53.146;23.172;2023-04-03T11:21:23;0.2;0;0
74432;PMS7003;62865;53.146;23.172;2023-04-03T11:25:59;0.4;0.2;0
74432;PMS7003;62865;53.146;23.172;2023-04-03T11:32:01;0;0;0
74432;PMS7003;62865;53.146;23.172;2023-04-03T11:36:30;0.6;0.6;0
74432;PMS7003;62865;53.146;23.172;2023-04-03T11:41:25;0;0;0
74432;PMS7003;62865;53.146;23.172;2023-04-03T11:46:08;0.4;0.2;0
74432;PMS7003;62865;53.146;23.172;2023-04-03T11:51:37;0.4;0.2;0
74432;PMS7003;62865;53.146;23.172;2023-04-03T11:56:44;1.2;0.4;0
74432;PMS7003;62865;53.146;23.172;2023-04-03T12:00:59;1.3;0.8;0.3
74432;PMS7003;62865;53.146;23.172;2023-04-03T12:07:12;0.8;0.4;0.2
74432;PMS7003;62865;53.146;23.172;2023-04-03T12:11:15;1;0.8;0.5
74432;PMS7003;62865;53.146;23.172;2023-04-03T12:16:18;0.4;0;0
74432;PMS7003;62865;53.146;23.172;2023-04-03T12:22:16;0.4;0.2;0
74432;PMS7003;62865;53.146;23.172;2023-04-03T12:26:24;0.6;0.4;0
74432;PMS7003;62865;53.146;23.172;2023-04-03T12:31:47;1.3;0;0
74432;PMS7003;62865;53.146;23.172;2023-04-03T12:36:02;0.7;0.2;0
74432;PMS7003;62865;53.146;23.172;2023-04-03T12:41:14;0.4;0.2;0
74432;PMS7003;62865;53.146;23.172;2023-04-03T12:46:45;1;0.2;0.2
74432;PMS7003;62865;53.146;23.172;2023-04-03T12:51:31;0.8;0.6;0
74432;PMS7003;62865;53.146;23.172;2023-04-03T12:56:44;0.6;0.2;0
74432;PMS7003;62865;53.146;23.172;2023-04-03T13:01:22;0.8;0.8;0.3
74432;PMS7003;62865;53.146;23.172;2023-04-03T13:06:22;0.4;0;0
74432;PMS7003;62865;53.146;23.172;2023-04-03T13:11:44;0.6;0.4;0.2
74432;PMS7003;62865;53.146;23.172;2023-04-03T13:16:26;2;0.6;0.4
74432;PMS7003;62865;53.146;23.172;2023-04-03T13:21:44;1.6;1.2;0.8
74432;PMS7003;62865;53.146;23.172;2023-04-03T13:26:12;0.2;0.2;0.2
74432;PMS7003;62865;53.146;23.172;2023-04-03T13:31:00;1;0.6;0
74432;PMS7003;62865;53.146;23.172;2023-04-03T13:36:45;0.3;0.3;0
74432;PMS7003;62865;53.146;23.172;2023-04-03T13:41:31;0.4;0.4;0.4
74432;PMS7003;62865;53.146;23.172;2023-04-03T13:46:46;0.6;0.6;0
74432;PMS7003;62865;53.146;23.172;2023-04-03T13:51:24;0.4;0.2;0.2
74432;PMS7003;62865;53.146;23.172;2023-04-03T13:56:15;1;0.8;0.2
74432;PMS7003;62865;53.146;23.172;2023-04-03T14:01:47;0.2;0.2;0.2
74432;PMS7003;62865;53.146;23.172;2023-04-03T14:06:32;0.6;0.4;0
74432;PMS7003;62865;53.146;23.172;2023-04-03T14:11:46;0;0;0
74432;PMS7003;62865;53.146;23.172;2023-04-03T14:16:12;0.3;0.3;0.3
74432;PMS7003;62865;53.146;23.172;2023-04-03T14:21:10;0.2;0;0
74432;PMS7003;62865;53.146;23.172;2023-04-03T14:26:46;0.5;0.3;0.3
74432;PMS7003;62865;53.146;23.172;2023-04-03T14:31:30;1.6;0.6;0.4
74432;PMS7003;62865;53.146;23.172;2023-04-03T14:36:46;0.2;0.2;0
74432;PMS7003;62865;53.146;23.172;2023-04-03T14:41:00;0.4;0.4;0.2
74432;PMS7003;62865;53.146;23.172;2023-04-03T14:46:15;0.4;0.4;0.2
74432;PMS7003;62865;53.146;23.172;2023-04-03T14:51:46;1.6;0.2;0
74432;PMS7003;62865;53.146;23.172;2023-04-03T14:56:42;1.5;0.5;0.3
74432;PMS7003;62865;53.146;23.172;2023-04-03T15:01:30;1;0.8;0.5
74432;PMS7003;62865;53.146;23.172;2023-04-03T15:06:38;0.6;0.4;0
74432;PMS7003;62865;53.146;23.172;2023-04-03T15:11:30;0.2;0.2;0.2
74432;PMS7003;62865;53.146;23.172;2023-04-03T15:16:00;0.4;0.4;0.2
74432;PMS7003;62865;53.146;23.172;2023-04-03T15:21:46;2;2;1
74432;PMS7003;62865;53.146;23.172;2023-04-03T15:26:30;0.4;0.2;0
74432;PMS7003;62865;53.146;23.172;2023-04-03T15:31:44;2.3;1.3;0.5
74432;PMS7003;62865;53.146;23.172;2023-04-03T15:35:58;0.6;0.4;0.4
74432;PMS7003;62865;53.146;23.172;2023-04-03T15:41:24;0.6;0.4;0.2
74432;PMS7003;62865;53.146;23.172;2023-04-03T15:46:11;2;1.6;0.8
74432;PMS7003;62865;53.146;23.172;2023-04-03T15:50:58;1;0.8;0
74432;PMS7003;62865;53.146;23.172;2023-04-03T15:56:46;0.2;0.2;0
74432;PMS7003;62865;53.146;23.172;2023-04-03T16:01:24;0.2;0;0
74432;PMS7003;62865;53.146;23.172;2023-04-03T16:06:38;2;0.7;0
74432;PMS7003;62865;53.146;23.172;2023-04-03T16:11:00;1;0.2;0.2
74432;PMS7003;62865;53.146;23.172;2023-04-03T16:16:24;1.5;0.8;0.3
74432;PMS7003;62865;53.146;23.172;2023-04-03T16:21:48;2;1.2;0.6
74432;PMS7003;62865;53.146;23.172;2023-04-03T16:26:16;0.8;0.4;0.2
74432;PMS7003;62865;53.146;23.172;2023-04-03T16:31:30;1.4;0.8;0.2
74432;PMS7003;62865;53.146;23.172;2023-04-03T16:36:10;0.6;0;0
74432;PMS7003;62865;53.146;23.172;2023-04-03T16:41:26;0.6;0.2;0
74432;PMS7003;62865;53.146;23.172;2023-04-03T16:46:48;1;0.8;0.4
74432;PMS7003;62865;53.146;23.172;2023-04-03T16:51:11;1.4;0.8;0
74432;PMS7003;62865;53.146;23.172;2023-04-03T16:56:40;0.4;0.2;0
74432;PMS7003;62865;53.146;23.172;2023-04-03T17:01:08;0.2;0.2;0
74432;PMS7003;62865;53.146;23.172;2023-04-03T17:06:26;0.8;0.6;0.2
74432;PMS7003;62865;53.146;23.172;2023-04-03T17:11:48;0.2;0;0
74432;PMS7003;62865;53.146;23.172;2023-04-03T17:16:26;1.2;0.8;0
74432;PMS7003;62865;53.146;23.172;2023-04-03T17:21:48;0.5;0;0
74432;PMS7003;62865;53.146;23.172;2023-04-03T17:26:16;0.4;0.2;0
74432;PMS7003;62865;53.146;23.172;2023-04-03T17:31:40;0.4;0.4;0
74432;PMS7003;62865;53.146;23.172;2023-04-03T17:36:48;0.8;0.4;0
74432;PMS7003;62865;53.146;23.172;2023-04-03T17:41:26;0.7;0.7;0.3
74432;PMS7003;62865;53.146;23.172;2023-04-03T17:46:38;0;0;0
74432;PMS7003;62865;53.146;23.172;2023-04-03T17:51:11;1.2;0.6;0.4
74432;PMS7003;62865;53.146;23.172;2023-04-03T17:56:40;1;0.8;0.4
74432;PMS7003;62865;53.146;23.172;2023-04-03T18:01:48;1.5;1.5;0.5
74432;PMS7003;62865;53.146;23.172;2023-04-03T18:06:26;1.2;0.6;0.4
74432;PMS7003;62865;53.146;23.172;2023-04-03T18:11:38;1.2;0.6;0.4
74432;PMS7003;62865;53.146;23.172;2023-04-03T18:15:58;1.4;1.4;1
74432;PMS7003;62865;53.146;23.172;2023-04-03T18:21:38;1.8;1.2;1
74432;PMS7003;62865;53.146;23.172;2023-04-03T18:26:47;1.2;1.2;0.6
74432;PMS7003;62865;53.146;23.172;2023-04-03T18:31:16;1.2;1.2;0.2
74432;PMS7003;62865;53.146;23.172;2023-04-03T18:36:38;2.2;1.6;1
74432;PMS7003;62865;53.146;23.172;2023-04-03T18:41:10;1.2;0.8;0.6
74432;PMS7003;62865;53.146;23.172;2023-04-03T18:46:40;2;1.2;0.8
74432;PMS7003;62865;53.146;23.172;2023-04-03T18:51:48;3.2;1.6;1.2
74432;PMS7003;62865;53.146;23.172;2023-04-03T18:56:26;2.4;1.6;1
74432;PMS7003;62865;53.146;23.172;2023-04-03T19:01:48;3.5;2.5;1.3
74432;PMS7003;62865;53.146;23.172;2023-04-03T19:06:16;8.8;7;4.6
74432;PMS7003;62865;53.146;23.172;2023-04-03T19:11:40;3.2;3;2
74432;PMS7003;62865;53.146;23.172;2023-04-03T19:16:48;2.2;1.4;0.8
74432;PMS7003;62865;53.146;23.172;2023-04-03T19:21:00;1.2;1;0.8
74432;PMS7003;62865;53.146;23.172;2023-04-03T19:26:40;2.8;1.4;1
74432;PMS7003;62865;53.146;23.172;2023-04-03T19:31:16;1.8;1.6;1
74432;PMS7003;62865;53.146;23.172;2023-04-03T19:36:14;3;2;1.4
74432;PMS7003;62865;53.146;23.172;2023-04-03T19:41:48;4.2;2;1.6
74432;PMS7003;62865;53.146;23.172;2023-04-03T19:46:16;2.2;1.8;1
74432;PMS7003;62865;53.146;23.172;2023-04-03T19:51:38;3.4;2.2;1.4
74432;PMS7003;62865;53.146;23.172;2023-04-03T19:56:16;3.8;2.8;1.8
74432;PMS7003;62865;53.146;23.172;2023-04-03T20:01:08;4.2;3.4;2.2
74432;PMS7003;62865;53.146;23.172;2023-04-03T20:06:48;2.8;2.8;1.8
74432;PMS7003;62865;53.146;23.172;2023-04-03T20:11:26;4.6;2.8;2
74432;PMS7003;62865;53.146;23.172;2023-04-03T20:16:40;3.2;2.2;1.4
74432;PMS7003;62865;53.146;23.172;2023-04-03T20:21:01;1.6;1.6;1.2
74432;PMS7003;62865;53.146;23.172;2023-04-03T20:26:40;2.2;1.6;0.8
74432;PMS7003;62865;53.146;23.172;2023-04-03T20:31:48;3.4;2;1.2
74432;PMS7003;62865;53.146;23.172;2023-04-03T20:36:26;3.2;1.8;1
74432;PMS7003;62865;53.146;23.172;2023-04-03T20:41:30;2.8;2.2;1.4
74432;PMS7003;62865;53.146;23.172;2023-04-03T20:46:10;2;1.4;1.2
74432;PMS7003;62865;53.146;23.172;2023-04-03T20:51:24;3.8;1.8;1
74432;PMS7003;62865;53.146;23.172;2023-04-03T20:56:48;3.8;2.6;1.6
74432;PMS7003;62865;53.146;23.172;2023-04-03T21:01:00;3.3;2.3;1.5
74432;PMS7003;62865;53.146;23.172;2023-04-03T21:21:48;4.2;2.4;1.8
74432;PMS7003;62865;53.146;23.172;2023-04-03T21:26:16;4.6;2.8;1.8
74432;PMS7003;62865;53.146;23.172;2023-04-03T21:31:50;4.5;3.5;1.5
74432;PMS7003;62865;53.146;23.172;2023-04-03T21:36:00;3.6;2.6;1.6
74432;PMS7003;62865;53.146;23.172;2023-04-03T21:41:40;4.6;4.2;1.8
74432;PMS7003;62865;53.146;23.172;2023-04-03T21:46:48;2.6;1.8;0.8
74432;PMS7003;62865;53.146;23.172;2023-04-03T21:51:26;2.6;1.4;0.8
74432;PMS7003;62865;53.146;23.172;2023-04-03T21:56:48;2.4;1.6;0.8
74432;PMS7003;62865;53.146;23.172;2023-04-03T22:01:07;2.8;1.4;1
74432;PMS7003;62865;53.146;23.172;2023-04-03T22:06:40;2;1.2;0.4
74432;PMS7003;62865;53.146;23.172;2023-04-03T22:11:48;3.4;2;1.2
74432;PMS7003;62865;53.146;23.172;2023-04-03T22:16:24;2.2;1.6;0.8
74432;PMS7003;62865;53.146;23.172;2023-04-03T22:21:46;0.8;0.8;0.8
74432;PMS7003;62865;53.146;23.172;2023-04-03T22:26:01;2.2;1.2;1
74432;PMS7003;62865;53.146;23.172;2023-04-03T22:31:40;1.4;1.4;0.8
74432;PMS7003;62865;53.146;23.172;2023-04-03T22:36:48;2.6;1.8;1.2
74432;PMS7003;62865;53.146;23.172;2023-04-03T22:41:00;3;3;1.8
74432;PMS7003;62865;53.146;23.172;2023-04-03T22:46:48;4.6;3.8;2.6
74432;PMS7003;62865;53.146;23.172;2023-04-03T22:51:30;9.4;7.2;4.2
74432;PMS7003;62865;53.146;23.172;2023-04-03T22:56:40;11.4;9.6;6.4
74432;PMS7003;62865;53.146;23.172;2023-04-03T23:01:46;14.6;12.2;7.4
74432;PMS7003;62865;53.146;23.172;2023-04-03T23:06:24;16;13.2;8.8
74432;PMS7003;62865;53.146;23.172;2023-04-03T23:11:46;13.2;11.2;7.6
74432;PMS7003;62865;53.146;23.172;2023-04-03T23:16:00;13.2;10.2;7
74432;PMS7003;62865;53.146;23.172;2023-04-03T23:21:38;9.4;7.8;4.8
74432;PMS7003;62865;53.146;23.172;2023-04-03T23:26:02;7;4.4;2.6
74432;PMS7003;62865;53.146;23.172;2023-04-03T23:31:22;3.6;3.6;1.4
74432;PMS7003;62865;53.146;23.172;2023-04-03T23:36:44;2.2;1.8;1
74432;PMS7003;62865;53.146;23.172;2023-04-03T23:41:14;1.4;1.2;0.8
74432;PMS7003;62865;53.146;23.172;2023-04-03T23:46:26;1.4;0.6;0.6
74432;PMS7003;62865;53.146;23.172;2023-04-03T23:51:42;1.8;1.2;0.8
74432;PMS7003;62865;53.146;23.172;2023-04-03T23:56:20;1;0.8;0.6
